Terminal Aerodrome Forecast
Issued by NWS

Home | Current Version | Previous Version | Text Only | Print | Product List | Glossary Off
Versions: 1 2 3 4 5 6 7 8 9 10 11 12 13 14 15 16 17 18 19 20 21 22 23 24 25 26

000
FTUS43 KBIS 272300
TAFMOT
TAF
KMOT 272336Z 2800/2824 10010KT 1SM -SN BR OVC019
     FM280300 09010KT 2SM -SN BR OVC015
     FM281200 11011KT 6SM BR VCSH OVC020=

USA.gov is the U.S. government's official web portal to all federal, state and local government web resources and services.